createdAt,value
2019-03-01T00:00:15.082Z,38.41
2019-03-01T00:01:15.057Z,38.47
2019-03-01T00:02:15.301Z,38.48
2019-03-01T00:03:14.955Z,38.45
2019-03-01T00:04:14.799Z,38.43
2019-03-01T00:05:15.013Z,38.42
2019-03-01T00:06:14.887Z,38.46
2019-03-01T00:07:14.948Z,38.46
2019-03-01T00:08:15.073Z,38.48
2019-03-01T00:09:14.860Z,38.47
2019-03-01T00:10:14.911Z,38.46
2019-03-01T00:11:15.041Z,38.49
2019-03-01T00:12:14.947Z,38.49
2019-03-01T00:13:15.244Z,38.43
2019-03-01T00:14:14.808Z,38.46
2019-03-01T00:15:14.938Z,38.47
2019-03-01T00:16:14.933Z,38.49
2019-03-01T00:17:14.814Z,38.51
2019-03-01T00:18:15.001Z,38.48
2019-03-01T00:19:15.049Z,38.47
2019-03-01T00:20:14.770Z,38.49
2019-03-01T00:21:14.985Z,38.48
2019-03-01T00:22:15.120Z,38.46
2019-03-01T00:23:14.905Z,38.5
2019-03-01T00:24:15.313Z,38.47
2019-03-01T00:25:14.821Z,38.49
2019-03-01T00:26:14.843Z,38.48
2019-03-01T00:27:15.077Z,38.51
2019-03-01T00:28:14.849Z,38.48
2019-03-01T00:29:14.901Z,38.51
2019-03-01T00:30:15.078Z,38.49
2019-03-01T00:31:14.946Z,38.47
2019-03-01T00:32:15.006Z,38.48
2019-03-01T00:33:14.701Z,38.44
2019-03-01T00:34:14.881Z,38.47
2019-03-01T00:35:14.969Z,38.5
2019-03-01T00:36:15.054Z,38.51
2019-03-01T00:37:15.047Z,38.48
2019-03-01T00:38:15.019Z,38.5
2019-03-01T00:39:14.816Z,38.52
2019-03-01T00:40:15.020Z,38.5
2019-03-01T00:41:14.895Z,38.49
2019-03-01T00:42:14.958Z,38.54
2019-03-01T00:43:15.082Z,38.52
2019-03-01T00:44:14.855Z,38.52
2019-03-01T00:45:15.044Z,38.55
2019-03-01T00:46:15.104Z,38.54
2019-03-01T00:47:14.856Z,38.51
2019-03-01T00:48:14.971Z,38.55
2019-03-01T00:49:14.756Z,38.54
2019-03-01T00:50:14.936Z,38.54
2019-03-01T00:51:15.102Z,38.55
2019-03-01T00:52:14.829Z,38.53
2019-03-01T00:53:14.970Z,38.54
2019-03-01T00:54:14.858Z,38.55
2019-03-01T00:55:14.925Z,38.55
2019-03-01T00:56:14.970Z,38.55
2019-03-01T00:57:14.890Z,38.54
2019-03-01T00:58:14.845Z,38.56
2019-03-01T00:59:15.113Z,38.55
2019-03-01T01:00:14.895Z,38.53
2019-03-01T01:01:14.873Z,38.5
2019-03-01T01:02:14.978Z,38.51
2019-03-01T01:03:14.870Z,38.51
2019-03-01T01:04:14.975Z,38.54
2019-03-01T01:05:14.748Z,38.53
2019-03-01T01:06:14.847Z,38.51
2019-03-01T01:07:15.271Z,38.5
2019-03-01T01:08:14.817Z,38.51
2019-03-01T01:09:14.890Z,38.53
2019-03-01T01:10:14.937Z,38.53
2019-03-01T01:11:14.775Z,38.49
2019-03-01T01:12:15.011Z,38.49
2019-03-01T01:13:14.963Z,38.51
2019-03-01T01:14:14.784Z,38.52
2019-03-01T01:15:14.935Z,38.51
2019-03-01T01:16:14.736Z,38.52
2019-03-01T01:17:14.888Z,38.52
2019-03-01T01:18:14.982Z,38.53
2019-03-01T01:19:14.770Z,38.52
2019-03-01T01:20:14.816Z,38.53
2019-03-01T01:21:14.875Z,38.51
2019-03-01T01:22:15.030Z,38.5
2019-03-01T01:23:14.924Z,38.55
2019-03-01T01:24:14.988Z,38.51
2019-03-01T01:25:14.760Z,38.52
2019-03-01T01:26:14.905Z,38.52
2019-03-01T01:27:14.895Z,38.53
2019-03-01T01:28:14.786Z,38.51
2019-03-01T01:29:14.820Z,38.57
2019-03-01T01:30:15.008Z,38.57
2019-03-01T01:31:14.949Z,38.58
2019-03-01T01:32:14.817Z,38.57
2019-03-01T01:33:14.956Z,38.58
2019-03-01T01:34:14.819Z,38.59
2019-03-01T01:35:14.863Z,38.52
2019-03-01T01:36:14.995Z,38.57
2019-03-01T01:37:14.812Z,38.58
2019-03-01T01:38:14.857Z,38.62
2019-03-01T01:39:14.704Z,38.59
2019-03-01T01:40:14.846Z,38.58
2019-03-01T01:41:14.930Z,38.58
2019-03-01T01:42:14.812Z,38.58
2019-03-01T01:43:14.763Z,38.56
2019-03-01T01:44:14.872Z,38.6
2019-03-01T01:45:14.751Z,38.6
2019-03-01T01:46:14.829Z,38.6
2019-03-01T01:47:14.927Z,38.6
2019-03-01T01:48:14.724Z,38.6
2019-03-01T01:49:14.836Z,38.59
2019-03-01T01:50:14.747Z,38.61
2019-03-01T01:51:14.710Z,38.6
2019-03-01T01:52:14.832Z,38.62
2019-03-01T01:53:14.767Z,38.64
2019-03-01T01:54:14.852Z,38.61
2019-03-01T01:55:14.952Z,38.61
2019-03-01T01:56:14.709Z,38.62
2019-03-01T01:57:14.811Z,38.68
2019-03-01T01:58:14.921Z,38.62
2019-03-01T01:59:14.736Z,38.62
2019-03-01T02:00:14.766Z,38.61
2019-03-01T02:01:14.929Z,38.63
2019-03-01T02:02:14.758Z,38.61
2019-03-01T02:03:14.807Z,38.65
2019-03-01T02:04:14.931Z,38.63
2019-03-01T02:05:14.969Z,38.67
2019-03-01T02:06:14.835Z,38.66
2019-03-01T02:07:14.979Z,38.67
2019-03-01T02:08:14.833Z,38.64
2019-03-01T02:09:14.851Z,38.65
2019-03-01T02:10:14.888Z,38.66
2019-03-01T02:11:14.815Z,38.64
2019-03-01T02:12:14.824Z,38.65
2019-03-01T02:13:14.715Z,38.64
2019-03-01T02:14:14.800Z,38.69
2019-03-01T02:15:14.904Z,38.66
2019-03-01T02:16:14.744Z,38.68
2019-03-01T02:17:14.838Z,38.67
2019-03-01T02:18:14.904Z,38.65
2019-03-01T02:19:14.796Z,38.68
2019-03-01T02:20:14.858Z,38.68
2019-03-01T02:21:14.901Z,38.69
2019-03-01T02:22:14.818Z,38.65
2019-03-01T02:23:14.882Z,38.67
2019-03-01T02:24:14.920Z,38.69
2019-03-01T02:25:14.768Z,38.65
2019-03-01T02:26:14.925Z,38.65
2019-03-01T02:27:14.940Z,38.67
2019-03-01T02:28:14.704Z,38.67
2019-03-01T02:29:14.941Z,38.65
2019-03-01T02:30:14.805Z,38.67
2019-03-01T02:31:14.909Z,38.67
2019-03-01T02:32:14.961Z,38.71
2019-03-01T02:33:14.765Z,38.67
2019-03-01T02:34:14.744Z,38.68
2019-03-01T02:35:14.936Z,38.67
2019-03-01T02:36:14.738Z,38.71
2019-03-01T02:37:14.801Z,38.72
2019-03-01T02:38:14.917Z,38.72
2019-03-01T02:39:14.735Z,38.69
2019-03-01T02:40:14.831Z,38.71
2019-03-01T02:41:14.941Z,38.71
2019-03-01T02:42:14.777Z,38.73
2019-03-01T02:43:14.789Z,38.71
2019-03-01T02:44:14.928Z,38.71
2019-03-01T02:45:14.844Z,38.69
2019-03-01T02:46:14.892Z,38.7
2019-03-01T02:47:14.759Z,38.73
2019-03-01T02:48:14.813Z,38.71
2019-03-01T02:49:14.874Z,38.75
2019-03-01T02:50:14.647Z,38.74
2019-03-01T02:51:14.845Z,38.73
2019-03-01T02:52:14.874Z,38.7
2019-03-01T02:53:14.758Z,38.75
2019-03-01T02:54:14.883Z,38.73
2019-03-01T02:55:14.848Z,38.68
2019-03-01T02:56:14.707Z,38.72
2019-03-01T02:57:14.727Z,38.72
2019-03-01T02:58:14.940Z,38.71
2019-03-01T02:59:14.742Z,38.7
2019-03-01T03:00:14.825Z,38.77
2019-03-01T03:01:14.886Z,38.7
2019-03-01T03:02:14.812Z,38.72
2019-03-01T03:03:14.771Z,38.7
2019-03-01T03:04:14.926Z,38.69
2019-03-01T03:05:14.658Z,38.72
2019-03-01T03:06:14.828Z,38.7
2019-03-01T03:07:14.957Z,38.73
2019-03-01T03:08:14.842Z,38.7
2019-03-01T03:09:15.097Z,38.72
2019-03-01T03:10:14.928Z,38.72
2019-03-01T03:11:14.886Z,38.71
2019-03-01T03:12:14.922Z,38.76
2019-03-01T03:13:14.794Z,38.73
2019-03-01T03:14:14.798Z,38.73
2019-03-01T03:15:14.885Z,38.75
2019-03-01T03:16:14.744Z,38.75
2019-03-01T03:17:14.771Z,38.76
2019-03-01T03:18:14.952Z,38.74
2019-03-01T03:19:14.768Z,38.73
2019-03-01T03:20:14.749Z,38.75
2019-03-01T03:21:14.989Z,38.74
2019-03-01T03:22:14.755Z,38.75
2019-03-01T03:23:14.813Z,38.75
2019-03-01T03:24:14.927Z,38.72
2019-03-01T03:25:14.791Z,38.76
2019-03-01T03:26:14.919Z,38.74
2019-03-01T03:27:14.940Z,38.74
2019-03-01T03:28:14.982Z,38.73
2019-03-01T03:29:14.793Z,38.78
2019-03-01T03:30:14.678Z,38.76
2019-03-01T03:31:14.902Z,38.72
2019-03-01T03:32:15.114Z,38.73
2019-03-01T03:33:14.833Z,38.76
2019-03-01T03:34:14.943Z,38.77
2019-03-01T03:35:14.960Z,38.76
2019-03-01T03:36:14.802Z,38.74
2019-03-01T03:37:14.857Z,38.78
2019-03-01T03:38:14.910Z,38.75
2019-03-01T03:39:14.702Z,38.78
2019-03-01T03:40:14.883Z,38.76
2019-03-01T03:41:14.992Z,38.79
2019-03-01T03:42:14.932Z,38.79
2019-03-01T03:43:14.968Z,38.75
2019-03-01T03:44:14.754Z,38.76
2019-03-01T03:45:14.813Z,38.79
2019-03-01T03:46:14.964Z,38.77
2019-03-01T03:47:14.846Z,38.76
2019-03-01T03:48:14.833Z,38.76
2019-03-01T03:49:14.956Z,38.79
2019-03-01T03:50:14.834Z,38.75
2019-03-01T03:51:14.787Z,38.75
2019-03-01T03:52:14.996Z,38.75
2019-03-01T03:53:15.172Z,38.76
2019-03-01T03:54:14.871Z,38.78
2019-03-01T03:55:14.923Z,38.76
2019-03-01T03:56:14.833Z,38.76
2019-03-01T03:57:14.831Z,38.75
2019-03-01T03:58:15.077Z,38.75
2019-03-01T03:59:14.771Z,38.75
2019-03-01T04:00:14.971Z,38.81
2019-03-01T04:01:14.830Z,38.79
2019-03-01T04:02:14.856Z,38.76
2019-03-01T04:03:15.013Z,38.79
2019-03-01T04:04:14.710Z,38.78
2019-03-01T04:05:14.959Z,38.79
2019-03-01T04:06:15.032Z,38.76
2019-03-01T04:07:14.791Z,38.81
2019-03-01T04:08:14.886Z,38.77
2019-03-01T04:09:14.734Z,38.78
2019-03-01T04:10:14.857Z,38.79
2019-03-01T04:11:14.924Z,38.79
2019-03-01T04:12:14.792Z,38.8
2019-03-01T04:13:17.018Z,38.8
2019-03-01T04:14:14.935Z,38.8
2019-03-01T04:15:14.961Z,38.8
2019-03-01T04:16:14.888Z,38.79
2019-03-01T04:17:14.933Z,38.8
2019-03-01T04:18:14.755Z,38.8
2019-03-01T04:19:14.828Z,38.82
2019-03-01T04:20:14.955Z,38.79
2019-03-01T04:21:14.801Z,38.79
2019-03-01T04:22:14.813Z,38.78
2019-03-01T04:23:14.937Z,38.83
2019-03-01T04:24:14.806Z,38.8
2019-03-01T04:25:14.817Z,38.79
2019-03-01T04:26:14.978Z,38.81
2019-03-01T04:27:14.825Z,38.83
2019-03-01T04:28:14.935Z,38.79
2019-03-01T04:29:14.649Z,38.82
2019-03-01T04:30:14.847Z,38.79
2019-03-01T04:31:14.841Z,38.82
2019-03-01T04:32:14.695Z,38.8
2019-03-01T04:33:14.818Z,38.83
2019-03-01T04:34:14.843Z,38.8
2019-03-01T04:35:14.689Z,38.81
2019-03-01T04:36:14.806Z,38.82
2019-03-01T04:37:15.142Z,38.79
2019-03-01T04:38:14.940Z,38.78
2019-03-01T04:39:14.856Z,38.81
2019-03-01T04:40:14.636Z,38.8
2019-03-01T04:41:14.772Z,38.8
2019-03-01T04:42:14.796Z,38.81
2019-03-01T04:43:14.668Z,38.82
2019-03-01T04:44:14.778Z,38.8
2019-03-01T04:45:14.865Z,38.81
2019-03-01T04:46:14.647Z,38.77
2019-03-01T04:47:14.693Z,38.8
2019-03-01T04:48:14.839Z,38.78
2019-03-01T04:49:14.761Z,38.78
2019-03-01T04:50:14.726Z,38.75
2019-03-01T04:51:14.844Z,38.78
2019-03-01T04:52:14.713Z,38.76
2019-03-01T04:53:14.735Z,38.78
2019-03-01T04:54:14.845Z,38.75
2019-03-01T04:55:14.777Z,38.78
2019-03-01T04:56:14.738Z,38.72
2019-03-01T04:57:14.895Z,38.69
2019-03-01T04:58:14.770Z,38.7
2019-03-01T04:59:14.735Z,38.72
2019-03-01T05:00:14.778Z,38.69
2019-03-01T05:01:14.660Z,38.69
2019-03-01T05:02:14.738Z,38.64
2019-03-01T05:03:14.891Z,38.65
2019-03-01T05:04:14.724Z,38.63
2019-03-01T05:05:14.763Z,38.65
2019-03-01T05:06:14.591Z,38.61
2019-03-01T05:07:14.724Z,38.61
2019-03-01T05:08:14.859Z,38.63
2019-03-01T05:09:14.639Z,38.69
2019-03-01T05:10:14.766Z,38.6
2019-03-01T05:11:14.765Z,38.64
2019-03-01T05:12:14.676Z,38.65
2019-03-01T05:13:14.960Z,38.58
2019-03-01T05:14:14.847Z,38.68
2019-03-01T05:15:14.757Z,38.68
2019-03-01T05:16:14.749Z,38.55
2019-03-01T05:17:14.620Z,38.65
2019-03-01T05:18:14.626Z,38.66
2019-03-01T05:19:14.843Z,38.68
2019-03-01T05:20:15.046Z,38.64
2019-03-01T05:21:14.704Z,38.71
2019-03-01T05:22:14.854Z,38.78
2019-03-01T05:23:14.646Z,38.64
2019-03-01T05:24:14.697Z,38.68
2019-03-01T05:25:14.854Z,38.67
2019-03-01T05:26:14.572Z,38.68
2019-03-01T05:27:14.714Z,38.72
2019-03-01T05:28:14.924Z,38.68
2019-03-01T05:29:14.678Z,38.72
2019-03-01T05:30:14.735Z,38.66
2019-03-01T05:31:14.880Z,38.76
2019-03-01T05:32:14.689Z,38.74
2019-03-01T05:33:14.779Z,38.76
2019-03-01T05:34:14.574Z,38.69
2019-03-01T05:35:14.656Z,38.71
2019-03-01T05:36:14.851Z,38.77
2019-03-01T05:37:14.631Z,38.77
2019-03-01T05:38:22.134Z,38.78
2019-03-01T05:39:14.783Z,38.72
2019-03-01T05:40:14.602Z,38.73
2019-03-01T05:41:14.828Z,38.71
2019-03-01T05:42:14.784Z,38.76
2019-03-01T05:43:14.618Z,38.75
2019-03-01T05:44:14.732Z,38.78
2019-03-01T05:45:14.834Z,38.71
2019-03-01T05:46:14.620Z,38.75
2019-03-01T05:47:14.855Z,38.68
2019-03-01T05:48:14.782Z,38.71
2019-03-01T05:49:14.666Z,38.7
2019-03-01T05:50:14.818Z,38.75
2019-03-01T05:51:14.603Z,38.7
2019-03-01T05:52:14.653Z,38.68
2019-03-01T05:53:14.868Z,38.72
2019-03-01T05:54:14.721Z,38.73
2019-03-01T05:55:14.700Z,38.72
2019-03-01T05:56:14.810Z,38.72
2019-03-01T05:57:14.656Z,38.66
2019-03-01T05:58:17.016Z,38.66
2019-03-01T05:59:14.874Z,38.74
2019-03-01T06:00:14.750Z,38.66
2019-03-01T06:01:14.770Z,38.68
2019-03-01T06:02:14.820Z,38.67
2019-03-01T06:03:14.904Z,38.64
2019-03-01T06:04:14.693Z,38.67
2019-03-01T06:05:14.826Z,38.65
2019-03-01T06:06:14.673Z,38.62
2019-03-01T06:07:14.689Z,38.64
2019-03-01T06:08:14.841Z,38.58
2019-03-01T06:09:14.727Z,38.63
2019-03-01T06:10:14.733Z,38.63
2019-03-01T06:11:14.621Z,38.59
2019-03-01T06:12:14.731Z,38.6
2019-03-01T06:13:14.738Z,38.6
2019-03-01T06:14:14.954Z,38.61
2019-03-01T06:15:14.808Z,38.59
2019-03-01T06:16:14.805Z,38.62
2019-03-01T06:17:14.607Z,38.59
2019-03-01T06:18:14.767Z,38.6
2019-03-01T06:19:14.803Z,38.56
2019-03-01T06:20:14.645Z,38.6
2019-03-01T06:21:14.816Z,38.55
2019-03-01T06:22:14.824Z,38.57
2019-03-01T06:23:14.608Z,38.54
2019-03-01T06:24:15.125Z,38.53
2019-03-01T06:25:15.130Z,38.57
2019-03-01T06:26:14.750Z,38.52
2019-03-01T06:27:16.543Z,38.56
2019-03-01T06:28:14.645Z,38.54
2019-03-01T06:29:14.681Z,38.51
2019-03-01T06:30:14.841Z,38.52
2019-03-01T06:31:14.702Z,38.53
2019-03-01T06:32:14.807Z,38.46
2019-03-01T06:33:14.819Z,38.45
2019-03-01T06:34:14.730Z,38.49
2019-03-01T06:35:14.669Z,38.47
2019-03-01T06:36:14.765Z,38.49
2019-03-01T06:37:14.718Z,38.43
2019-03-01T06:38:16.320Z,38.45
2019-03-01T06:39:14.896Z,38.5
2019-03-01T06:40:14.768Z,38.46
2019-03-01T06:41:14.725Z,38.45
2019-03-01T06:42:14.837Z,38.42
2019-03-01T06:43:14.738Z,38.44
2019-03-01T06:44:14.691Z,38.45
2019-03-01T06:45:14.862Z,38.43
2019-03-01T06:46:14.706Z,38.45
2019-03-01T06:47:14.726Z,38.45
2019-03-01T06:48:15.109Z,38.44
2019-03-01T06:49:14.674Z,38.4
2019-03-01T06:50:14.703Z,38.42
2019-03-01T06:51:14.851Z,38.4
2019-03-01T06:52:14.680Z,38.4
2019-03-01T06:53:14.701Z,38.42
2019-03-01T06:54:14.593Z,38.4
2019-03-01T06:55:14.677Z,38.44
2019-03-01T06:56:14.693Z,38.44
2019-03-01T06:57:14.559Z,38.41
2019-03-01T06:58:14.680Z,38.36
2019-03-01T06:59:14.730Z,38.39
2019-03-01T07:00:14.593Z,38.41
2019-03-01T07:01:14.724Z,38.39
2019-03-01T07:02:15.032Z,38.42
2019-03-01T07:03:14.597Z,38.36
2019-03-01T07:04:14.667Z,38.38
2019-03-01T07:05:14.744Z,38.35
2019-03-01T07:06:14.567Z,38.43
2019-03-01T07:07:14.811Z,38.43
2019-03-01T07:08:15.100Z,38.35
2019-03-01T07:09:14.717Z,38.36
2019-03-01T07:10:15.186Z,38.35
2019-03-01T07:11:14.732Z,38.39
2019-03-01T07:12:14.603Z,38.35
2019-03-01T07:13:14.845Z,38.35
2019-03-01T07:14:14.584Z,38.3
2019-03-01T07:15:14.766Z,38.39
2019-03-01T07:16:14.752Z,38.29
2019-03-01T07:17:14.803Z,38.32
2019-03-01T07:18:14.727Z,38.36
2019-03-01T07:19:14.775Z,38.31
2019-03-01T07:20:14.787Z,38.31
2019-03-01T07:21:14.615Z,38.39
2019-03-01T07:22:14.744Z,38.33
2019-03-01T07:23:14.614Z,38.34
2019-03-01T07:24:14.825Z,38.38
2019-03-01T07:25:14.960Z,38.29
2019-03-01T07:26:14.595Z,38.27
2019-03-01T07:27:14.775Z,38.35
2019-03-01T07:28:14.815Z,38.31
2019-03-01T07:29:14.628Z,38.27
2019-03-01T07:30:14.709Z,38.35
2019-03-01T07:31:14.798Z,38.36
2019-03-01T07:32:14.806Z,38.52
2019-03-01T07:33:14.650Z,38.71
2019-03-01T07:34:14.833Z,38.58
2019-03-01T07:35:14.763Z,38.86
2019-03-01T07:36:14.603Z,40.44
2019-03-01T07:37:14.698Z,40.29
2019-03-01T07:38:14.569Z,40.46
2019-03-01T07:39:14.642Z,40.32
2019-03-01T07:40:14.735Z,40.91
2019-03-01T07:41:14.571Z,41.02
2019-03-01T07:42:14.727Z,41.07
2019-03-01T07:43:14.686Z,41.14
2019-03-01T07:44:14.633Z,41.01
2019-03-01T07:45:14.630Z,40.67
2019-03-01T07:46:14.753Z,40.51
2019-03-01T07:47:14.582Z,40.3
2019-03-01T07:48:14.629Z,40.42
2019-03-01T07:49:14.689Z,40.09
2019-03-01T07:50:14.518Z,40.15
2019-03-01T07:51:14.681Z,39.98
2019-03-01T07:52:14.748Z,39.98
2019-03-01T07:53:14.518Z,39.9
2019-03-01T07:54:18.032Z,39.84
2019-03-01T07:55:14.819Z,39.74
2019-03-01T07:56:14.764Z,39.71
2019-03-01T07:57:15.756Z,39.61
2019-03-01T07:58:14.746Z,39.54
2019-03-01T07:59:14.753Z,39.47
2019-03-01T08:00:15.068Z,39.51
2019-03-01T08:01:14.664Z,39.43
2019-03-01T08:02:14.869Z,39.49
2019-03-01T08:03:15.977Z,39.39
2019-03-01T08:04:14.793Z,39.34
2019-03-01T08:05:16.778Z,39.35
2019-03-01T08:06:14.637Z,39.36
2019-03-01T08:07:14.785Z,39.37
2019-03-01T08:08:14.711Z,39.27
2019-03-01T08:09:14.559Z,39.24
2019-03-01T08:10:22.552Z,39.19
2019-03-01T08:11:14.844Z,39.16
2019-03-01T08:12:14.874Z,39.2
2019-03-01T08:13:18.409Z,39.1
2019-03-01T08:14:14.775Z,39.14
2019-03-01T08:15:14.572Z,39.14
2019-03-01T08:16:20.064Z,39.11
2019-03-01T08:17:14.713Z,39.11
2019-03-01T08:18:14.686Z,39.08
2019-03-01T08:19:22.245Z,39.03
2019-03-01T08:20:15.000Z,39.05
2019-03-01T08:21:15.130Z,39.03
2019-03-01T08:22:14.748Z,39.03
2019-03-01T08:23:14.657Z,39.03
2019-03-01T08:24:14.561Z,38.99
2019-03-01T08:25:14.777Z,38.99
2019-03-01T08:26:14.846Z,38.97
2019-03-01T08:27:14.560Z,38.96
2019-03-01T08:28:14.765Z,38.96
2019-03-01T08:29:14.717Z,38.95
2019-03-01T08:30:14.583Z,38.92
2019-03-01T08:31:20.872Z,38.93
2019-03-01T08:32:14.725Z,38.88
2019-03-01T08:33:14.883Z,38.9
2019-03-01T08:34:18.654Z,38.9
2019-03-01T08:35:14.847Z,38.91
2019-03-01T08:36:14.706Z,38.83
2019-03-01T08:37:18.458Z,38.88
2019-03-01T08:38:14.796Z,38.87
2019-03-01T08:39:14.590Z,38.83
2019-03-01T08:40:15.766Z,38.82
2019-03-01T08:41:14.741Z,38.82
2019-03-01T08:42:14.527Z,38.8
2019-03-01T08:43:14.662Z,38.81
2019-03-01T08:44:14.768Z,38.78
2019-03-01T08:45:14.593Z,38.86
2019-03-01T08:46:14.692Z,38.82
2019-03-01T08:47:23.585Z,39.01
2019-03-01T08:48:14.552Z,38.94
2019-03-01T08:49:14.723Z,39.16
2019-03-01T08:50:14.776Z,39.42
2019-03-01T08:51:14.539Z,39.51
2019-03-01T08:52:14.589Z,39.57
2019-03-01T08:53:16.214Z,39.69
2019-03-01T08:54:14.695Z,39.81
2019-03-01T08:55:14.668Z,39.72
2019-03-01T08:56:15.667Z,39.7
2019-03-01T08:57:14.548Z,39.68
2019-03-01T08:58:14.817Z,39.69
2019-03-01T08:59:18.664Z,39.56
2019-03-01T09:00:14.562Z,39.56
2019-03-01T09:01:14.636Z,39.66
2019-03-01T09:02:14.634Z,39.66
2019-03-01T09:03:22.115Z,39.59
2019-03-01T09:04:21.348Z,39.61
2019-03-01T09:05:14.762Z,39.66
2019-03-01T09:06:14.529Z,39.47
2019-03-01T09:07:14.632Z,39.52
2019-03-01T09:08:14.689Z,39.57
2019-03-01T09:09:20.884Z,39.53
2019-03-01T09:10:14.746Z,39.62
2019-03-01T09:11:14.638Z,39.57
2019-03-01T09:12:14.766Z,39.65
2019-03-01T09:13:14.709Z,39.55
2019-03-01T09:14:14.596Z,39.55
2019-03-01T09:15:14.762Z,39.6
2019-03-01T09:16:14.583Z,39.58
2019-03-01T09:17:14.593Z,39.63
2019-03-01T09:18:15.521Z,39.68
2019-03-01T09:19:14.918Z,39.78
2019-03-01T09:20:14.591Z,39.66
2019-03-01T09:21:14.690Z,39.59
2019-03-01T09:22:14.569Z,39.64
2019-03-01T09:23:27.078Z,39.68
2019-03-01T09:24:14.750Z,39.72
2019-03-01T09:25:14.777Z,39.75
2019-03-01T09:26:19.883Z,39.79
2019-03-01T09:27:14.713Z,39.69
2019-03-01T09:28:14.832Z,39.74
2019-03-01T09:29:19.421Z,39.72
2019-03-01T09:30:14.794Z,39.78
2019-03-01T09:31:14.711Z,39.72
2019-03-01T09:32:14.547Z,39.75
2019-03-01T09:33:21.107Z,39.76
2019-03-01T09:34:14.714Z,39.69
2019-03-01T09:35:14.674Z,39.71
2019-03-01T09:36:21.327Z,39.69
2019-03-01T09:37:14.722Z,39.77
2019-03-01T09:38:14.587Z,39.75
2019-03-01T09:39:19.276Z,39.77
2019-03-01T09:40:14.876Z,39.73
2019-03-01T09:41:14.543Z,39.75
2019-03-01T09:42:16.310Z,39.71
2019-03-01T09:43:14.711Z,39.61
2019-03-01T09:44:14.535Z,39.73
2019-03-01T09:45:14.747Z,39.59
2019-03-01T09:46:14.664Z,39.54
2019-03-01T09:47:14.549Z,39.5
2019-03-01T09:48:14.658Z,39.47
2019-03-01T09:49:14.697Z,39.5
2019-03-01T09:50:14.654Z,39.45
2019-03-01T09:51:16.169Z,39.48
2019-03-01T09:52:14.718Z,39.5
2019-03-01T09:53:14.490Z,39.51
2019-03-01T09:54:14.680Z,39.75
2019-03-01T09:55:14.670Z,39.69
2019-03-01T09:56:14.616Z,39.68
2019-03-01T09:57:16.519Z,39.69
2019-03-01T09:58:14.851Z,39.66
2019-03-01T09:59:14.500Z,39.62
2019-03-01T10:00:14.705Z,39.72
2019-03-01T10:01:14.790Z,39.78
2019-03-01T10:02:14.648Z,39.74
2019-03-01T10:03:14.682Z,39.77
2019-03-01T10:04:14.809Z,39.74
2019-03-01T10:05:14.559Z,39.76
2019-03-01T10:06:14.674Z,39.81
2019-03-01T10:07:14.695Z,39.77
2019-03-01T10:08:14.578Z,39.82
2019-03-01T10:09:14.657Z,39.79
2019-03-01T10:10:14.674Z,39.79
2019-03-01T10:11:14.525Z,39.78
2019-03-01T10:12:14.586Z,39.74
2019-03-01T10:13:14.760Z,39.74
2019-03-01T10:14:14.553Z,39.82
2019-03-01T10:15:14.624Z,39.88
2019-03-01T10:16:14.748Z,39.86
2019-03-01T10:17:14.508Z,39.84
2019-03-01T10:18:14.661Z,39.96
2019-03-01T10:19:14.662Z,39.98
2019-03-01T10:20:14.556Z,40.01
2019-03-01T10:21:14.701Z,40.32
2019-03-01T10:22:14.675Z,40.21
2019-03-01T10:23:14.651Z,40.28
2019-03-01T10:24:15.055Z,40.09
2019-03-01T10:25:14.747Z,40.09
2019-03-01T10:26:14.498Z,40.11
2019-03-01T10:27:14.699Z,40.15
2019-03-01T10:28:14.528Z,40.14
2019-03-01T10:29:14.537Z,40.09
2019-03-01T10:30:14.740Z,40.14
2019-03-01T10:31:14.550Z,40.13
2019-03-01T10:32:14.560Z,40.17
2019-03-01T10:33:14.730Z,40.17
2019-03-01T10:34:14.585Z,40.17
2019-03-01T10:35:14.570Z,40.16
2019-03-01T10:36:14.753Z,40.17
2019-03-01T10:37:14.525Z,40.09
2019-03-01T10:38:14.532Z,40.16
2019-03-01T10:39:14.741Z,40.12
2019-03-01T10:40:14.553Z,40.17
2019-03-01T10:41:14.590Z,40.19
2019-03-01T10:42:14.790Z,40.15
2019-03-01T10:43:14.512Z,40.06
2019-03-01T10:44:14.577Z,40.09
2019-03-01T10:45:14.735Z,40.1
2019-03-01T10:46:14.720Z,40.03
2019-03-01T10:47:14.660Z,40.01
2019-03-01T10:48:14.644Z,40.05
2019-03-01T10:49:14.840Z,40.03
2019-03-01T10:50:14.652Z,40.04
2019-03-01T10:51:14.873Z,40.06
2019-03-01T10:52:14.675Z,39.97
2019-03-01T10:53:14.907Z,39.93
2019-03-01T10:54:14.621Z,39.96
2019-03-01T10:55:14.666Z,39.88
2019-03-01T10:56:14.477Z,39.87
2019-03-01T10:57:15.937Z,39.85
2019-03-01T10:58:14.649Z,39.84
2019-03-01T10:59:14.476Z,39.88
2019-03-01T11:00:14.824Z,39.83
2019-03-01T11:01:14.642Z,39.84
2019-03-01T11:02:14.479Z,39.8
2019-03-01T11:03:14.679Z,39.78
2019-03-01T11:04:14.754Z,39.74
2019-03-01T11:05:14.517Z,39.77
2019-03-01T11:06:14.822Z,39.71
2019-03-01T11:07:14.658Z,39.72
2019-03-01T11:08:14.842Z,39.65
2019-03-01T11:09:14.670Z,39.68
2019-03-01T11:10:14.714Z,39.65
2019-03-01T11:11:14.602Z,39.66
2019-03-01T11:12:14.687Z,39.66
2019-03-01T11:13:14.497Z,39.64
2019-03-01T11:14:14.552Z,39.6
2019-03-01T11:15:14.680Z,39.62
2019-03-01T11:16:14.560Z,39.62
2019-03-01T11:17:14.579Z,39.58
2019-03-01T11:18:14.722Z,39.55
2019-03-01T11:19:14.542Z,39.58
2019-03-01T11:20:14.577Z,39.6
2019-03-01T11:21:14.732Z,39.59
2019-03-01T11:22:14.621Z,39.55
2019-03-01T11:23:14.588Z,39.58
2019-03-01T11:24:14.695Z,39.55
2019-03-01T11:25:14.605Z,39.48
2019-03-01T11:26:14.572Z,39.53
2019-03-01T11:27:14.718Z,39.53
2019-03-01T11:28:14.476Z,39.5
2019-03-01T11:29:14.579Z,39.52
2019-03-01T11:30:14.854Z,39.5
2019-03-01T11:31:14.492Z,39.45
2019-03-01T11:32:14.731Z,39.47
2019-03-01T11:33:14.754Z,39.47
2019-03-01T11:34:14.627Z,39.47
2019-03-01T11:35:14.622Z,39.46
2019-03-01T11:36:14.549Z,39.48
2019-03-01T11:37:14.518Z,39.46
2019-03-01T11:38:14.612Z,39.45
2019-03-01T11:39:14.433Z,39.48
2019-03-01T11:40:14.606Z,39.5
2019-03-01T11:41:14.621Z,39.48
2019-03-01T11:42:14.484Z,39.47
2019-03-01T11:43:14.562Z,39.44
2019-03-01T11:44:14.622Z,39.48
2019-03-01T11:45:14.552Z,39.44
2019-03-01T11:46:14.641Z,39.45
2019-03-01T11:47:14.610Z,39.62
2019-03-01T11:48:14.460Z,39.83
2019-03-01T11:49:14.606Z,39.96
2019-03-01T11:50:14.639Z,40.22
2019-03-01T11:51:14.433Z,40.23
2019-03-01T11:52:14.802Z,40.28
2019-03-01T11:53:14.655Z,40.49
2019-03-01T11:54:14.492Z,40.69
2019-03-01T11:55:14.575Z,40.77
2019-03-01T11:56:14.719Z,40.92
2019-03-01T11:57:14.459Z,40.73
2019-03-01T11:58:14.634Z,40.64
2019-03-01T11:59:14.602Z,40.53
2019-03-01T12:00:14.534Z,40.48
2019-03-01T12:01:17.672Z,40.37
2019-03-01T12:02:14.442Z,40.21
2019-03-01T12:03:15.688Z,40.18
2019-03-01T12:04:14.642Z,40.05
2019-03-01T12:05:14.445Z,40
2019-03-01T12:06:14.775Z,39.93
2019-03-01T12:07:14.642Z,39.86
2019-03-01T12:08:14.489Z,39.82
2019-03-01T12:09:14.753Z,39.85
2019-03-01T12:10:14.679Z,39.75
2019-03-01T12:11:14.457Z,39.73
2019-03-01T12:12:14.487Z,39.63
2019-03-01T12:13:14.730Z,39.75
2019-03-01T12:14:14.535Z,39.67
2019-03-01T12:15:14.871Z,39.72
2019-03-01T12:16:14.646Z,39.69
2019-03-01T12:17:14.656Z,39.59
2019-03-01T12:18:14.643Z,40.15
2019-03-01T12:19:14.650Z,40.05
2019-03-01T12:20:14.517Z,40.04
2019-03-01T12:21:14.630Z,40.02
2019-03-01T12:22:17.616Z,39.99
2019-03-01T12:23:14.633Z,39.95
2019-03-01T12:24:14.520Z,39.72
2019-03-01T12:25:14.659Z,39.65
2019-03-01T12:26:14.745Z,39.54
2019-03-01T12:27:14.513Z,39.54
2019-03-01T12:28:14.624Z,39.48
2019-03-01T12:29:14.744Z,39.5
2019-03-01T12:30:14.859Z,39.43
2019-03-01T12:31:14.603Z,39.43
2019-03-01T12:32:14.646Z,39.38
2019-03-01T12:33:14.620Z,39.33
2019-03-01T12:34:14.553Z,39.39
2019-03-01T12:35:14.663Z,39.37
2019-03-01T12:36:14.613Z,39.33
2019-03-01T12:37:14.528Z,39.34
2019-03-01T12:38:14.743Z,39.37
2019-03-01T12:39:14.510Z,39.35
2019-03-01T12:40:14.637Z,39.42
2019-03-01T12:41:14.659Z,39.54
2019-03-01T12:42:14.635Z,39.51
2019-03-01T12:43:14.609Z,39.53
2019-03-01T12:44:14.444Z,39.6
2019-03-01T12:45:14.467Z,39.58
2019-03-01T12:46:14.658Z,39.57
2019-03-01T12:47:14.661Z,39.6
2019-03-01T12:48:14.498Z,39.47
2019-03-01T12:49:14.603Z,39.63
2019-03-01T12:50:14.485Z,39.57
2019-03-01T12:51:14.465Z,39.55
2019-03-01T12:52:14.642Z,39.51
2019-03-01T12:53:14.518Z,39.53
2019-03-01T12:54:14.495Z,39.55
2019-03-01T12:55:14.643Z,39.54